Thursday, April 26, 2018, 8:54 PM GMT
Back to Local

CWUX, La Baie , Que.

Location: , , Canada Lat: 48.3
Local Time: 8:54 PM GMT (20:54 GMT) Lon: -70.933
Time Zone: GMT Elev: 442 ft

Show me the last for .
Show Coded

Time T Td Feel RH Dir Speed Gust Alt SLP Vis Weather Sky Remarks
2018-04-26 19:00 44 43 41 95 280° 7 - - 29.50 0 None
2018-04-26 18:00 44 42 40 93 270° 8 - - 29.52 0 None
2018-04-26 17:00 49 46 - 89 360° 1 - - 29.53 0 None
2018-04-26 16:00 46 46 44 100 10° 3 - - 29.53 0 None
2018-04-26 15:00 47 45 - 92 50° 1 - - 29.55 0 None
2018-04-26 14:00 46 44 - 95 50° 2 - - 29.56 0 None
2018-04-26 13:00 47 44 44 91 60° 5 - - 29.58 0 None
2018-04-26 12:00 46 45 43 97 100° 5 - - 29.60 0 None
2018-04-26 11:00 40 40 - 97 80° 2 - - 29.63 0 None
2018-04-26 10:00 39 39 - 98 70° 1 - - 29.63 0 None
2018-04-26 09:00 44 44 41 99 90° 5 - - 29.65 0 None
2018-04-26 08:00 43 43 40 99 70° 6 - - 29.66 0 None
2018-04-26 07:00 37 36 - 98 - Calm - - 29.70 0 None
2018-04-26 06:00 37 38 - 105 - Calm - - 29.73 0 None
2018-04-26 05:00 40 39 - 97 50° 1 - - 29.77 0 None
2018-04-26 04:00 40 40 - 97 80° 2 - - 29.82 0 None
2018-04-26 03:00 41 40 - 95 90° 2 - - 29.85 0 None
2018-04-26 02:00 42 42 40 97 90° 3 - - 29.88 0 None
2018-04-26 01:00 42 39 - 86 90° 2 - - 29.89 0 None
2018-04-25 23:00 46 40 - 78 130° 2 - - 29.90 0 None
2018-04-25 21:00 55 43 - 63 50° 1 - - 29.93 0 None

Support USWX by starting your Amazon purchase here.